Time;durP1;ratioP1;P1;durP2;ratioP2;P2;SDS_P1;SDS_P2;PMS_P1;PMS_P2;Temp;Humidity;BMP_temperature;BMP_pressure;BME280_temperature;BME280_humidity;BME280_pressure;Samples;Min_cycle;Max_cycle;Signal;HPM_P1;HPM_P2
2024/02/02 00:00:07;;;;;;;30.77;18.48;;;;;;;3.44;59.65;100378.06;5037406;28;20377;-63
2024/02/02 00:02:37;;;;;;;36.70;19.65;;;;;;;3.40;60.49;100360.88;5038189;28;20044;-62
2024/02/02 00:05:04;;;;;;;35.45;19.77;;;;;;;3.22;60.87;100349.84;5037367;28;20068;-61
2024/02/02 00:07:29;;;;;;;34.88;20.67;;;;;;;3.09;61.56;100343.72;5038203;28;20320;-62
2024/02/02 00:09:56;;;;;;;43.25;21.60;;;;;;;3.12;62.01;100336.53;5050970;28;20092;-63
2024/02/02 00:12:22;;;;;;;34.42;18.27;;;;;;;3.24;62.35;100345.34;5057578;28;20235;-62
2024/02/02 00:14:48;;;;;;;36.78;17.63;;;;;;;3.28;61.25;100340.75;5057257;28;20449;-61
2024/02/02 00:17:14;;;;;;;36.70;17.33;;;;;;;3.27;59.87;100352.16;5057330;28;20088;-60
2024/02/02 00:19:39;;;;;;;28.63;16.55;;;;;;;3.18;59.65;100349.22;5049202;28;20083;-63
2024/02/02 00:22:05;;;;;;;33.85;17.42;;;;;;;2.98;61.19;100351.41;5037406;28;20037;-62
2024/02/02 00:24:30;;;;;;;33.97;18.02;;;;;;;3.00;61.42;100350.38;5037670;28;20033;-62
2024/02/02 00:26:56;;;;;;;39.35;20.13;;;;;;;2.97;61.90;100350.56;5036857;28;20044;-61
2024/02/02 00:29:22;;;;;;;32.53;19.00;;;;;;;2.98;61.91;100340.94;5037612;28;20037;-62
2024/02/02 00:31:47;;;;;;;33.10;18.05;;;;;;;2.94;62.36;100347.31;5035932;28;20029;-64
2024/02/02 00:34:12;;;;;;;37.28;19.73;;;;;;;2.77;62.64;100333.53;5038237;28;20043;-62
2024/02/02 00:36:38;;;;;;;36.40;20.17;;;;;;;2.87;62.56;100334.63;5036610;28;20033;-61
2024/02/02 00:39:03;;;;;;;32.00;17.25;;;;;;;2.66;63.67;100341.22;5038235;28;20045;-62
2024/02/02 00:41:29;;;;;;;37.15;19.58;;;;;;;2.59;64.49;100331.25;5036609;28;20396;-63
2024/02/02 00:43:54;;;;;;;43.58;23.15;;;;;;;2.70;64.15;100336.66;5037137;28;20384;-63
2024/02/02 00:46:20;;;;;;;39.88;19.77;;;;;;;2.54;64.10;100323.72;5036799;28;20407;-61
2024/02/02 00:48:45;;;;;;;41.80;20.48;;;;;;;2.66;64.72;100328.16;5037855;28;20220;-61
2024/02/02 00:51:11;;;;;;;38.20;19.77;;;;;;;2.69;64.47;100322.75;5037364;28;20086;-64
2024/02/02 00:53:36;;;;;;;38.92;18.33;;;;;;;2.83;64.18;100321.84;5037370;28;20051;-64
2024/02/02 00:56:02;;;;;;;37.05;19.23;;;;;;;2.98;63.74;100322.63;5044388;28;20219;-60
2024/02/02 00:58:27;;;;;;;35.78;19.50;;;;;;;3.00;63.13;100310.28;5056583;28;20046;-62
2024/02/02 01:00:53;;;;;;;46.72;21.58;;;;;;;3.00;62.85;100324.22;5057182;28;20029;-63
2024/02/02 01:03:18;;;;;;;31.92;19.63;;;;;;;2.64;63.64;100316.13;5056572;28;20052;-63
2024/02/02 01:05:44;;;;;;;36.85;19.98;;;;;;;2.58;64.00;100311.28;5056414;28;20045;-62
2024/02/02 01:08:09;;;;;;;38.45;20.33;;;;;;;2.48;62.31;100304.03;5036608;28;20389;-62
2024/02/02 01:10:35;;;;;;;35.95;19.75;;;;;;;2.64;62.96;100313.50;5037221;28;20030;-61
2024/02/02 01:13:01;;;;;;;41.70;21.60;;;;;;;2.66;63.50;100312.47;5054401;28;20402;-63
2024/02/02 01:15:27;;;;;;;48.92;23.67;;;;;;;2.57;64.64;100305.22;5057878;28;20025;-63
2024/02/02 01:17:52;;;;;;;41.17;22.67;;;;;;;2.70;64.92;100307.88;5040845;28;20563;-61
2024/02/02 01:20:17;;;;;;;37.60;18.88;;;;;;;2.77;64.63;100301.31;5036667;28;20033;-61
2024/02/02 01:22:43;;;;;;;38.53;22.63;;;;;;;2.86;64.12;100298.94;5048768;28;20055;-62
2024/02/02 01:25:12;;;;;;;43.78;22.75;;;;;;;2.60;65.26;100297.19;5056814;28;20060;-63
2024/02/02 01:27:38;;;;;;;50.50;28.95;;;;;;;2.80;65.31;100301.13;5047161;28;20413;-62
2024/02/02 01:30:06;;;;;;;30.02;20.00;;;;;;;2.90;64.07;100299.59;5036676;28;20025;-61
2024/02/02 01:32:32;;;;;;;36.40;19.98;;;;;;;2.58;63.35;100287.75;5037465;28;20041;-61
2024/02/02 01:34:57;;;;;;;37.60;19.42;;;;;;;2.58;63.56;100293.81;5036440;28;20051;-61
2024/02/02 01:37:23;;;;;;;37.45;20.15;;;;;;;2.51;62.54;100293.38;5040525;28;20259;-62
2024/02/02 01:39:48;;;;;;;35.70;19.77;;;;;;;2.27;64.70;100275.78;5039336;28;20037;-63
2024/02/02 01:42:14;;;;;;;38.15;19.27;;;;;;;2.38;65.02;100268.94;5040744;28;20049;-62
2024/02/02 01:44:40;;;;;;;30.77;18.10;;;;;;;2.36;64.55;100265.59;5040357;28;20041;-61
2024/02/02 01:47:07;;;;;;;30.90;17.95;;;;;;;2.43;65.20;100264.28;5040916;28;20047;-62
2024/02/02 01:49:34;;;;;;;38.03;19.88;;;;;;;2.61;64.96;100261.41;5038727;28;20049;-63
2024/02/02 01:52:00;;;;;;;38.30;19.95;;;;;;;2.67;64.38;100254.00;5039802;28;20109;-61
2024/02/02 01:54:27;;;;;;;30.60;18.65;;;;;;;2.78;64.00;100261.16;5055651;28;20534;-61
2024/02/02 01:56:53;;;;;;;46.15;23.45;;;;;;;2.82;64.04;100257.41;5060788;28;20335;-62
2024/02/02 01:59:18;;;;;;;39.67;21.42;;;;;;;2.79;64.56;100255.00;5046207;28;20034;-62
2024/02/02 02:01:44;;;;;;;40.60;22.10;;;;;;;2.68;65.09;100266.16;5039715;28;20056;-63
2024/02/02 02:04:09;;;;;;;41.47;23.67;;;;;;;2.52;65.53;100271.53;5049639;28;20127;-62
2024/02/02 02:06:35;;;;;;;32.63;19.45;;;;;;;2.01;65.80;100269.56;5059397;28;20060;-62
2024/02/02 02:09:02;;;;;;;30.33;16.20;;;;;;;1.74;67.04;100244.19;5053312;28;20048;-61
2024/02/02 02:11:27;;;;;;;32.55;17.50;;;;;;;1.88;67.80;100259.84;5039383;28;20033;-63
2024/02/02 02:13:54;;;;;;;34.75;17.05;;;;;;;2.13;67.59;100255.75;5039787;28;20107;-62
2024/02/02 02:16:20;;;;;;;32.47;18.48;;;;;;;2.21;67.29;100246.50;5038935;28;20036;-61
2024/02/02 02:18:46;;;;;;;30.15;16.42;;;;;;;2.25;68.20;100249.75;5039859;28;20067;-62
2024/02/02 02:21:27;;;;;;;32.50;18.15;;;;;;;2.41;68.05;100253.06;5038671;28;20033;-61
2024/02/02 02:23:54;;;;;;;29.45;17.25;;;;;;;2.41;67.94;100273.97;5040493;28;20037;-63
2024/02/02 02:26:20;;;;;;;33.53;18.65;;;;;;;2.29;68.06;100271.31;5039223;28;20045;-63
2024/02/02 02:28:46;;;;;;;25.95;16.85;;;;;;;1.90;68.53;100268.44;5040133;28;20049;-60
2024/02/02 02:31:16;;;;;;;27.20;14.50;;;;;;;1.89;69.38;100266.75;5038596;28;20107;-60
2024/02/02 02:33:43;;;;;;;27.35;14.70;;;;;;;1.86;70.32;100255.66;5040693;28;20068;-61
2024/02/02 02:36:11;;;;;;;27.55;16.60;;;;;;;1.96;70.79;100258.53;5038959;28;20103;-63
2024/02/02 02:38:36;;;;;;;35.00;17.58;;;;;;;2.05;70.71;100253.59;5039536;28;20045;-61
2024/02/02 02:41:02;;;;;;;23.02;12.82;;;;;;;1.87;73.10;100250.34;5051707;28;20075;-61
2024/02/02 02:43:29;;;;;;;40.00;20.85;;;;;;;1.98;75.35;100247.06;5059227;28;20036;-61
2024/02/02 02:45:54;;;;;;;26.73;16.35;;;;;;;2.31;74.55;100251.97;5049433;28;20037;-63
2024/02/02 02:48:20;;;;;;;17.10;11.57;;;;;;;2.58;73.05;100248.53;5038179;28;20071;-63
2024/02/02 02:50:46;;;;;;;18.27;10.82;;;;;;;2.87;72.37;100247.47;5039274;28;20296;-61
2024/02/02 02:53:11;;;;;;;48.33;27.35;;;;;;;3.19;71.26;100253.22;5038607;28;20045;-62
2024/02/02 02:55:37;;;;;;;40.08;24.05;;;;;;;3.42;70.16;100251.66;5039484;28;20044;-61
2024/02/02 02:58:02;;;;;;;36.08;22.83;;;;;;;3.63;69.23;100249.38;5039123;28;20051;-63
2024/02/02 03:00:29;;;;;;;36.88;22.10;;;;;;;3.77;68.41;100241.38;5040333;28;20101;-61
2024/02/02 03:02:55;;;;;;;35.83;20.80;;;;;;;3.88;67.96;100232.78;5058165;28;20539;-61
2024/02/02 03:05:20;;;;;;;34.63;18.80;;;;;;;3.98;67.17;100242.50;5059216;28;20037;-62
2024/02/02 03:07:46;;;;;;;29.83;17.92;;;;;;;3.97;67.39;100255.72;5040134;28;20048;-62
2024/02/02 03:10:12;;;;;;;25.67;15.35;;;;;;;4.00;67.72;100253.72;5039553;28;20377;-63
2024/02/02 03:12:38;;;;;;;19.77;10.77;;;;;;;4.04;68.08;100249.94;5038314;28;20100;-63
2024/02/02 03:15:03;;;;;;;17.75;10.30;;;;;;;3.68;70.54;100235.00;5039085;28;20059;-60
2024/02/02 03:17:29;;;;;;;16.90;10.15;;;;;;;3.85;70.68;100241.69;5039087;28;20155;-61
2024/02/02 03:19:54;;;;;;;35.05;14.20;;;;;;;3.93;70.81;100247.22;5039036;28;20029;-61
2024/02/02 03:22:20;;;;;;;12.65;7.90;;;;;;;4.08;70.04;100240.06;5047520;28;20239;-64
2024/02/02 03:24:46;;;;;;;16.75;8.13;;;;;;;4.10;69.28;100244.25;5057988;28;20045;-61
2024/02/02 03:27:11;;;;;;;19.30;9.57;;;;;;;4.19;69.25;100252.44;5051540;28;20034;-62
2024/02/02 03:29:37;;;;;;;15.52;8.32;;;;;;;4.23;68.76;100246.88;5038116;28;20083;-62
2024/02/02 03:32:03;;;;;;;18.63;9.23;;;;;;;4.30;68.01;100247.28;5041734;28;20100;-62
2024/02/02 03:34:28;;;;;;;17.52;9.52;;;;;;;4.30;68.03;100258.59;5058079;28;20082;-62
2024/02/02 03:36:54;;;;;;;13.82;8.23;;;;;;;4.17;67.86;100257.81;5057691;28;20037;-63
2024/02/02 03:39:20;;;;;;;12.32;7.40;;;;;;;4.20;67.75;100262.00;5037905;28;20064;-63
2024/02/02 03:41:45;;;;;;;12.32;7.90;;;;;;;4.05;68.26;100256.84;5038497;28;20177;-62
2024/02/02 03:44:11;;;;;;;13.30;6.82;;;;;;;4.08;68.35;100266.28;5036066;28;20080;-61
2024/02/02 03:46:36;;;;;;;12.57;7.65;;;;;;;4.05;68.78;100269.97;5038632;28;20072;-62
2024/02/02 03:49:02;;;;;;;14.45;7.88;;;;;;;4.06;69.19;100263.78;5038249;28;20063;-63
2024/02/02 03:51:27;;;;;;;15.20;7.78;;;;;;;3.99;69.71;100265.16;5038013;28;20047;-63
2024/02/02 03:53:53;;;;;;;11.60;7.00;;;;;;;4.13;70.50;100259.78;5037912;28;20048;-61
2024/02/02 03:56:18;;;;;;;10.18;6.72;;;;;;;4.29;70.43;100266.56;5037768;28;20033;-61
2024/02/02 03:58:44;;;;;;;9.82;5.88;;;;;;;4.40;70.05;100264.84;5037807;28;20041;-61
2024/02/02 04:01:09;;;;;;;9.90;5.00;;;;;;;4.46;70.21;100266.22;5037202;28;20327;-62
2024/02/02 04:03:35;;;;;;;8.02;4.40;;;;;;;4.62;70.35;100277.25;5037546;28;20069;-62
2024/02/02 04:06:00;;;;;;;8.30;4.63;;;;;;;4.72;70.00;100265.16;5037241;28;20041;-61
2024/02/02 04:08:27;;;;;;;8.60;5.68;;;;;;;4.75;69.90;100277.22;5038303;28;20046;-62
2024/02/02 04:10:53;;;;;;;13.60;8.70;;;;;;;4.71;68.69;100287.09;5037731;28;20742;-61
2024/02/02 04:13:18;;;;;;;16.95;8.45;;;;;;;4.70;68.28;100300.31;5038095;28;20034;-63
2024/02/02 04:15:44;;;;;;;17.67;10.50;;;;;;;4.63;68.41;100302.53;5036387;28;20049;-62
2024/02/02 04:18:09;;;;;;;15.93;10.30;;;;;;;4.49;68.85;100290.44;5037449;28;20100;-62
2024/02/02 04:20:35;;;;;;;13.63;9.00;;;;;;;4.65;68.60;100290.16;5036372;28;20049;-61
2024/02/02 04:23:00;;;;;;;29.73;16.75;;;;;;;4.72;68.51;100294.00;5037899;28;20327;-63
2024/02/02 04:25:26;;;;;;;21.48;12.15;;;;;;;4.77;68.57;100299.75;5036735;28;20259;-63
2024/02/02 04:27:53;;;;;;;18.67;9.23;;;;;;;4.78;69.27;100298.81;5038032;28;20041;-61
2024/02/02 04:30:18;;;;;;;18.60;9.52;;;;;;;4.86;69.99;100290.38;5048421;28;20086;-62
2024/02/02 04:32:44;;;;;;;16.15;7.70;;;;;;;4.96;69.45;100287.91;5056914;28;20351;-63
2024/02/02 04:35:09;;;;;;;9.48;5.03;;;;;;;5.05;69.23;100280.19;5049825;28;20044;-63
2024/02/02 04:37:34;;;;;;;9.40;5.25;;;;;;;5.18;69.55;100295.03;5037194;28;20217;-62
2024/02/02 04:40:00;;;;;;;12.13;6.80;;;;;;;5.27;69.50;100297.00;5037401;28;20037;-62
2024/02/02 04:42:26;;;;;;;13.38;8.73;;;;;;;5.37;68.63;100300.63;5037010;28;20075;-62
2024/02/02 04:44:51;;;;;;;9.80;5.70;;;;;;;5.52;68.05;100306.50;5037624;28;20033;-64
2024/02/02 04:47:17;;;;;;;13.95;8.48;;;;;;;5.59;68.50;100303.28;5036318;28;20403;-63
2024/02/02 04:49:42;;;;;;;17.67;8.85;;;;;;;5.66;67.86;100316.78;5037437;28;20210;-61
2024/02/02 04:52:08;;;;;;;14.05;7.35;;;;;;;5.70;67.25;100315.63;5036731;28;20053;-63
2024/02/02 04:54:34;;;;;;;12.75;7.55;;;;;;;5.74;67.43;100319.69;5037944;28;20075;-63
2024/02/02 04:56:59;;;;;;;11.85;7.50;;;;;;;5.72;67.33;100329.47;5036382;28;20037;-65
2024/02/02 04:59:24;;;;;;;11.13;6.53;;;;;;;5.75;67.59;100309.06;5037453;28;20058;-62
2024/02/02 05:01:50;;;;;;;14.13;9.07;;;;;;;5.74;67.86;100319.69;5036230;28;20034;-63
2024/02/02 05:04:15;;;;;;;17.30;9.68;;;;;;;5.61;68.28;100319.78;5036794;28;20049;-61
2024/02/02 05:06:41;;;;;;;17.88;7.72;;;;;;;5.61;68.35;100322.41;5036359;28;20052;-63
2024/02/02 05:09:06;;;;;;;11.23;7.57;;;;;;;5.62;69.20;100321.44;5036670;28;20043;-64
2024/02/02 05:11:32;;;;;;;10.52;5.95;;;;;;;5.60;69.09;100325.97;5046836;28;20242;-62
2024/02/02 05:13:57;;;;;;;9.15;6.22;;;;;;;5.59;69.62;100326.09;5060628;28;20044;-62
2024/02/02 05:16:23;;;;;;;14.48;7.20;;;;;;;5.61;69.42;100318.94;5056865;28;20041;-63
2024/02/02 05:18:50;;;;;;;10.32;6.75;;;;;;;5.63;68.91;100333.63;5040677;28;20074;-63
2024/02/02 05:21:15;;;;;;;12.93;6.75;;;;;;;5.67;68.69;100329.81;5040963;28;20033;-62
2024/02/02 05:23:41;;;;;;;14.98;7.00;;;;;;;5.75;68.43;100340.59;5040066;28;20347;-61
2024/02/02 05:26:06;;;;;;;22.73;12.00;;;;;;;5.82;68.01;100346.22;5041675;28;20339;-61
2024/02/02 05:28:32;;;;;;;19.45;10.60;;;;;;;5.90;67.97;100350.91;5058382;28;20343;-63
2024/02/02 05:30:57;;;;;;;13.63;8.63;;;;;;;6.00;68.06;100355.34;5060705;28;20029;-64
2024/02/02 05:33:23;;;;;;;14.45;8.38;;;;;;;6.00;67.81;100357.97;5045300;28;20227;-62
2024/02/02 05:35:48;;;;;;;17.27;10.40;;;;;;;6.06;67.62;100354.03;5041199;28;20215;-63
2024/02/02 05:38:13;;;;;;;21.20;12.40;;;;;;;6.05;66.84;100355.00;5040579;28;20063;-61
2024/02/02 05:40:39;;;;;;;20.80;13.57;;;;;;;5.83;67.63;100358.41;5040134;28;20037;-62
2024/02/02 05:43:05;;;;;;;21.17;13.73;;;;;;;5.78;67.33;100366.63;5040062;28;20037;-64
2024/02/02 05:45:30;;;;;;;20.83;12.38;;;;;;;5.86;66.91;100357.31;5040156;28;20041;-62
2024/02/02 05:47:56;;;;;;;25.83;12.02;;;;;;;6.05;66.67;100358.47;5040446;28;20376;-63
2024/02/02 05:50:21;;;;;;;18.35;11.63;;;;;;;6.09;66.30;100370.41;5039792;28;20029;-62
2024/02/02 05:52:47;;;;;;;18.30;11.70;;;;;;;5.90;66.44;100369.31;5040820;28;20037;-61
2024/02/02 05:55:12;;;;;;;24.85;15.23;;;;;;;5.88;66.80;100364.13;5038992;28;20044;-62
2024/02/02 05:57:38;;;;;;;15.80;10.07;;;;;;;5.90;68.30;100366.69;5040640;28;20048;-63
2024/02/02 06:00:04;;;;;;;18.55;9.95;;;;;;;5.98;68.17;100375.66;5039841;28;20041;-64
2024/02/02 06:02:30;;;;;;;18.70;10.55;;;;;;;6.03;67.32;100367.41;5040493;28;20036;-61
2024/02/02 06:04:55;;;;;;;21.42;11.63;;;;;;;6.13;67.54;100371.00;5038838;28;20029;-62
2024/02/02 06:07:20;;;;;;;27.42;14.23;;;;;;;6.14;67.68;100380.56;5040615;28;20045;-63
2024/02/02 06:09:46;;;;;;;19.42;10.95;;;;;;;6.16;67.28;100378.66;5039749;28;20041;-63
2024/02/02 06:12:11;;;;;;;25.52;12.27;;;;;;;6.16;68.11;100383.09;5039923;28;20060;-61
2024/02/02 06:14:37;;;;;;;22.40;13.32;;;;;;;6.15;68.68;100387.50;5039450;28;20043;-62
2024/02/02 06:17:03;;;;;;;24.92;13.75;;;;;;;6.18;68.54;100387.28;5038860;28;20041;-62
2024/02/02 06:19:28;;;;;;;17.48;12.27;;;;;;;6.25;67.91;100390.28;5039732;28;20358;-64
2024/02/02 06:21:54;;;;;;;23.65;12.63;;;;;;;6.29;68.07;100381.22;5037776;28;20033;-64
2024/02/02 06:24:20;;;;;;;21.23;11.02;;;;;;;6.36;68.55;100395.56;5045096;28;20059;-62
2024/02/02 06:26:46;;;;;;;17.45;10.32;;;;;;;6.39;68.37;100390.91;5058844;28;20100;-63
2024/02/02 06:29:11;;;;;;;15.63;11.35;;;;;;;6.45;68.75;100389.56;5059734;28;20051;-62
2024/02/02 06:31:37;;;;;;;23.88;10.80;;;;;;;6.51;68.06;100390.91;5058849;28;20074;-63
2024/02/02 06:34:03;;;;;;;19.83;11.98;;;;;;;6.56;68.33;100386.09;5060611;28;20037;-63
2024/02/02 06:36:28;;;;;;;20.90;12.00;;;;;;;6.58;67.98;100394.72;5039061;28;20041;-61
2024/02/02 06:38:57;;;;;;;18.67;11.35;;;;;;;6.55;68.29;100382.63;5040406;28;20045;-61
2024/02/02 06:41:23;;;;;;;16.60;9.75;;;;;;;6.63;67.99;100384.66;5055693;28;20037;-62
2024/02/02 06:43:48;;;;;;;18.55;11.20;;;;;;;6.68;68.39;100387.78;5059664;28;20220;-63
2024/02/02 06:46:15;;;;;;;16.67;11.60;;;;;;;6.71;67.81;100396.25;5046111;28;20367;-63
2024/02/02 06:48:43;;;;;;;20.55;10.57;;;;;;;6.73;67.92;100396.13;5058852;28;20045;-61
2024/02/02 06:51:09;;;;;;;20.25;12.38;;;;;;;6.84;67.17;100395.28;5057736;28;20037;-61
2024/02/02 06:53:35;;;;;;;18.13;10.65;;;;;;;6.81;67.19;100390.25;5057786;28;20036;-62
2024/02/02 06:56:01;;;;;;;19.65;10.80;;;;;;;6.87;67.76;100397.66;5056723;28;20048;-63
2024/02/02 06:58:41;;;;;;;16.35;10.25;;;;;;;6.94;66.79;100404.13;5056109;28;20307;-63
2024/02/02 07:01:08;;;;;;;17.10;10.25;;;;;;;6.95;66.86;100405.78;5055476;28;20108;-61
2024/02/02 07:03:34;;;;;;;14.25;10.05;;;;;;;6.97;66.77;100412.59;5055558;28;20267;-62
2024/02/02 07:06:00;;;;;;;17.05;9.82;;;;;;;6.99;66.81;100418.59;5055742;28;20052;-63
2024/02/02 07:08:26;;;;;;;19.65;10.57;;;;;;;6.94;67.22;100419.91;5055144;28;20041;-64
2024/02/02 07:11:13;;;;;;;16.08;10.38;;;;;;;6.98;67.41;100423.97;5054514;28;20033;-62
2024/02/02 07:13:52;;;;;;;18.30;10.98;;;;;;;7.01;67.44;100427.19;5054705;28;20037;-62
2024/02/02 07:16:30;;;;;;;17.30;10.65;;;;;;;7.02;68.18;100435.94;5054963;28;20033;-62
2024/02/02 07:18:56;;;;;;;18.38;9.35;;;;;;;7.07;68.24;100432.94;5055031;28;20259;-63
2024/02/02 07:21:39;;;;;;;17.08;11.05;;;;;;;7.12;68.00;100436.88;5055108;28;20108;-63
2024/02/02 07:24:05;;;;;;;16.85;10.40;;;;;;;7.07;68.13;100440.84;5055649;28;20045;-61
2024/02/02 07:26:32;;;;;;;15.52;9.25;;;;;;;7.04;68.68;100440.13;5055262;28;20374;-62
2024/02/02 07:28:58;;;;;;;18.02;9.98;;;;;;;7.09;69.40;100439.75;5055599;28;20029;-61
2024/02/02 07:31:42;;;;;;;18.98;10.55;;;;;;;7.14;70.09;100449.91;5056738;28;20059;-62
2024/02/02 07:34:45;;;;;;;18.75;11.77;;;;;;;7.23;70.30;100451.81;5055509;28;20053;-63
2024/02/02 07:37:38;;;;;;;23.95;11.55;;;;;;;7.18;71.41;100456.63;5054221;28;20243;-61
2024/02/02 07:40:29;;;;;;;19.83;10.00;;;;;;;7.23;71.24;100465.81;5054307;28;20060;-61
2024/02/02 07:42:54;;;;;;;18.13;10.70;;;;;;;7.26;72.29;100462.94;5055193;28;20066;-62
2024/02/02 07:45:20;;;;;;;21.48;11.05;;;;;;;7.30;72.19;100471.47;5055705;28;20040;-64
2024/02/02 07:47:45;;;;;;;19.10;11.43;;;;;;;7.34;72.98;100472.91;5056399;28;20044;-64
2024/02/02 07:50:11;;;;;;;17.85;10.65;;;;;;;7.37;73.34;100472.66;5054616;28;20025;-61
2024/02/02 07:52:36;;;;;;;25.20;11.60;;;;;;;7.37;73.95;100475.28;5073760;28;20774;-61
2024/02/02 07:55:02;;;;;;;18.58;11.80;;;;;;;7.45;73.59;100477.28;5055405;28;20032;-63
2024/02/02 07:57:27;;;;;;;22.65;12.63;;;;;;;7.51;74.01;100479.44;5056288;28;20060;-64
2024/02/02 07:59:53;;;;;;;22.08;12.65;;;;;;;7.54;73.69;100487.09;5054342;28;20269;-62
2024/02/02 08:02:18;;;;;;;19.30;11.07;;;;;;;7.47;74.42;100484.13;5055921;28;20223;-61
2024/02/02 08:04:44;;;;;;;20.65;11.13;;;;;;;7.46;74.28;100490.34;5054684;28;20029;-62
2024/02/02 08:07:09;;;;;;;19.05;11.27;;;;;;;7.54;73.91;100492.38;5055912;28;20055;-62
2024/02/02 08:09:35;;;;;;;17.85;11.65;;;;;;;7.65;73.27;100492.31;5055396;28;20028;-63
2024/02/02 08:12:00;;;;;;;20.20;11.85;;;;;;;7.70;73.15;100500.69;5054871;28;20361;-62
2024/02/02 08:14:26;;;;;;;19.67;11.73;;;;;;;7.76;73.55;100499.34;5054834;28;20235;-62
2024/02/02 08:16:51;;;;;;;22.52;11.35;;;;;;;7.69;73.89;100510.41;5054874;28;20091;-61
2024/02/02 08:19:17;;;;;;;18.75;11.18;;;;;;;7.79;73.63;100504.38;5055492;28;20037;-63
2024/02/02 08:21:43;;;;;;;19.33;12.18;;;;;;;7.77;74.16;100515.06;5054390;28;20029;-63
2024/02/02 08:24:08;;;;;;;18.85;10.90;;;;;;;7.82;74.25;100515.50;5055728;28;20053;-62
2024/02/02 08:26:34;;;;;;;20.63;11.57;;;;;;;7.87;73.94;100523.88;5053964;28;20212;-62
2024/02/02 08:28:59;;;;;;;19.27;11.65;;;;;;;7.93;73.97;100512.81;5055843;28;20029;-62
2024/02/02 08:31:25;;;;;;;17.58;10.63;;;;;;;7.99;73.40;100522.03;5055467;28;20043;-63
2024/02/02 08:33:50;;;;;;;21.35;11.40;;;;;;;7.99;73.08;100529.94;5056158;28;20346;-62
2024/02/02 08:36:17;;;;;;;18.55;11.88;;;;;;;7.97;73.81;100535.34;5054282;28;20036;-62
2024/02/02 08:38:43;;;;;;;18.55;11.75;;;;;;;7.96;73.58;100538.94;5054799;28;20351;-62
2024/02/02 08:41:10;;;;;;;18.65;11.63;;;;;;;7.94;74.16;100540.03;5054230;28;20043;-61
2024/02/02 08:43:36;;;;;;;23.27;11.57;;;;;;;7.81;75.17;100534.94;5054596;28;20048;-62
2024/02/02 08:46:10;;;;;;;20.23;11.38;;;;;;;7.94;75.61;100542.66;5056307;28;20299;-62
2024/02/02 08:48:38;;;;;;;20.48;12.32;;;;;;;7.93;75.89;100538.38;5059286;28;20078;-63
2024/02/02 08:51:16;;;;;;;19.17;12.38;;;;;;;7.94;76.57;100542.66;5058076;28;20310;-62
2024/02/02 08:53:41;;;;;;;24.30;12.35;;;;;;;7.97;76.05;100543.25;5060099;28;20041;-62
2024/02/02 08:56:12;;;;;;;22.23;12.77;;;;;;;7.89;77.17;100543.06;5059167;28;20267;-62
2024/02/02 08:58:37;;;;;;;20.35;13.63;;;;;;;8.04;77.64;100550.66;5058773;28;20322;-63
2024/02/02 09:01:04;;;;;;;18.58;11.32;;;;;;;7.98;76.24;100552.84;5058416;28;20043;-63
2024/02/02 09:03:33;;;;;;;17.88;11.10;;;;;;;8.06;76.23;100560.13;5058560;28;20052;-61
2024/02/02 09:06:01;;;;;;;19.33;11.65;;;;;;;8.05;76.06;100550.53;5058689;28;20045;-61
2024/02/02 09:08:40;;;;;;;17.55;11.88;;;;;;;8.12;75.19;100559.63;5057610;28;20047;-61
2024/02/02 09:11:12;;;;;;;19.55;11.38;;;;;;;8.12;74.46;100556.97;5073671;28;20407;-61
2024/02/02 09:13:40;;;;;;;18.65;12.25;;;;;;;7.99;75.36;100553.69;5056898;28;20030;-62
2024/02/02 09:16:07;;;;;;;19.63;12.35;;;;;;;8.09;74.95;100546.69;5056870;28;20044;-64
2024/02/02 09:19:09;;;;;;;21.52;13.20;;;;;;;8.16;74.67;100561.03;5056731;28;20079;-63
2024/02/02 09:21:36;;;;;;;21.55;12.48;;;;;;;8.10;74.93;100571.25;5054861;28;20810;-62
2024/02/02 09:24:02;;;;;;;18.73;10.88;;;;;;;8.06;75.05;100565.41;5056962;28;20343;-62
2024/02/02 09:26:40;;;;;;;22.27;12.98;;;;;;;8.04;74.81;100567.34;5055756;28;20045;-63
2024/02/02 09:29:08;;;;;;;18.63;11.70;;;;;;;7.97;75.61;100560.88;5055987;28;20315;-64
2024/02/02 09:31:37;;;;;;;18.50;11.50;;;;;;;8.06;75.48;100564.56;5056230;28;20029;-62
2024/02/02 09:34:06;;;;;;;18.45;11.85;;;;;;;8.09;75.70;100570.44;5054518;28;20094;-63
2024/02/02 09:36:32;;;;;;;21.77;11.27;;;;;;;8.05;75.12;100558.44;5056236;28;20044;-62
2024/02/02 09:39:03;;;;;;;21.58;12.02;;;;;;;8.13;74.90;100560.47;5053778;28;20315;-61
2024/02/02 09:41:40;;;;;;;21.00;12.70;;;;;;;8.16;75.02;100560.22;5056555;28;20240;-61
2024/02/02 09:44:27;;;;;;;20.42;11.40;;;;;;;8.15;74.68;100559.38;5053906;28;20354;-61
2024/02/02 09:47:18;;;;;;;19.25;11.70;;;;;;;8.07;75.32;100563.59;5056438;28;20040;-64
2024/02/02 09:49:53;;;;;;;19.73;12.77;;;;;;;8.21;75.03;100565.94;5056113;28;20335;-62
2024/02/02 09:52:43;;;;;;;18.13;11.35;;;;;;;8.23;74.72;100554.28;5057625;28;20063;-62
2024/02/02 09:55:21;;;;;;;18.45;11.90;;;;;;;8.30;73.73;100554.63;5057036;28;20076;-63
2024/02/02 09:58:00;;;;;;;17.73;11.65;;;;;;;8.37;73.57;100552.38;5056954;28;20080;-63
2024/02/02 10:00:36;;;;;;;20.30;11.45;;;;;;;8.44;73.55;100562.28;5056737;28;20044;-62
2024/02/02 10:03:11;;;;;;;21.38;11.55;;;;;;;8.51;74.09;100559.97;5057378;28;20056;-62
2024/02/02 10:06:04;;;;;;;20.40;11.57;;;;;;;8.47;73.37;100550.63;5057318;28;20045;-62
2024/02/02 10:09:02;;;;;;;17.77;11.38;;;;;;;8.50;72.83;100553.84;5057473;28;20063;-63
2024/02/02 10:11:30;;;;;;;20.35;11.15;;;;;;;8.49;72.45;100552.19;5056944;28;20370;-62
2024/02/02 10:14:33;;;;;;;18.15;11.10;;;;;;;8.47;72.13;100533.00;5057049;28;20051;-63
2024/02/02 10:17:29;;;;;;;18.38;11.30;;;;;;;8.60;71.76;100540.72;5057003;28;20072;-64
2024/02/02 10:20:03;;;;;;;17.90;10.45;;;;;;;8.56;70.83;100544.59;5055932;28;20065;-62
2024/02/02 10:22:50;;;;;;;16.73;10.68;;;;;;;8.61;69.77;100547.66;5057132;28;20182;-62
2024/02/02 10:25:34;;;;;;;18.27;10.32;;;;;;;8.60;69.36;100543.34;5063920;28;20048;-63
2024/02/02 10:28:21;;;;;;;15.40;9.77;;;;;;;8.64;69.10;100548.25;5057285;28;20037;-63
2024/02/02 10:30:53;;;;;;;16.27;9.88;;;;;;;8.57;68.35;100540.97;5055302;28;20037;-62
2024/02/02 10:33:32;;;;;;;19.40;10.55;;;;;;;8.56;68.67;100537.50;5057117;28;20037;-63
2024/02/02 10:36:13;;;;;;;19.35;11.38;;;;;;;8.69;68.56;100541.75;5055964;28;20029;-61
2024/02/02 10:39:12;;;;;;;20.52;11.98;;;;;;;8.71;68.28;100540.63;5057703;28;20041;-62
2024/02/02 10:41:50;;;;;;;21.45;11.32;;;;;;;8.74;68.43;100550.09;5055433;28;20342;-64
2024/02/02 10:44:24;;;;;;;17.60;11.10;;;;;;;8.81;67.84;100549.44;5057313;28;20045;-63
2024/02/02 10:47:26;;;;;;;19.23;11.52;;;;;;;8.77;67.26;100545.41;5054762;28;20354;-61
2024/02/02 10:50:10;;;;;;;19.10;11.07;;;;;;;8.77;67.28;100550.69;5056285;28;20040;-61
2024/02/02 10:52:54;;;;;;;16.58;10.18;;;;;;;8.75;67.23;100552.63;5056057;28;20048;-63
2024/02/02 10:55:34;;;;;;;15.60;10.25;;;;;;;8.88;66.33;100555.88;5057434;28;20231;-63
2024/02/02 10:58:11;;;;;;;17.98;10.05;;;;;;;8.95;66.73;100542.97;5056478;28;20029;-61
2024/02/02 11:00:47;;;;;;;17.85;11.98;;;;;;;9.03;65.83;100544.97;5054335;28;20445;-62
2024/02/02 11:03:39;;;;;;;22.77;12.95;;;;;;;9.11;65.67;100539.84;5055212;28;20056;-63
2024/02/02 11:06:20;;;;;;;18.85;11.63;;;;;;;9.15;65.32;100542.09;5056273;28;20045;-63
2024/02/02 11:09:00;;;;;;;21.23;11.95;;;;;;;9.11;65.29;100543.34;5055729;28;20043;-62
2024/02/02 11:11:30;;;;;;;22.27;13.23;;;;;;;9.17;65.47;100539.31;5055183;28;20041;-62
2024/02/02 11:14:10;;;;;;;21.55;12.43;;;;;;;9.10;65.47;100539.00;5056382;28;20045;-62
2024/02/02 11:16:49;;;;;;;21.15;11.93;;;;;;;9.20;65.11;100541.69;5056287;28;21042;-62
2024/02/02 11:19:32;;;;;;;18.00;8.95;;;;;;;9.06;63.76;100539.41;5055493;28;20069;-62
2024/02/02 11:22:12;;;;;;;14.23;8.68;;;;;;;8.94;63.60;100542.16;5055278;28;20033;-64
2024/02/02 11:25:02;;;;;;;13.13;9.00;;;;;;;9.06;63.05;100536.78;5056294;28;20052;-62
2024/02/02 11:27:41;;;;;;;12.80;8.02;;;;;;;8.99;62.86;100543.56;5054395;28;20037;-62